Time;durP1;ratioP1;P1;durP2;ratioP2;P2;SDS_P1;SDS_P2;PMS_P1;PMS_P2;Temp;Humidity;BMP_temperature;BMP_pressure;BME280_temperature;BME280_humidity;BME280_pressure;Samples;Min_cycle;Max_cycle;Signal;HPM_P1;HPM_P2
2023/04/12 00:00:49;;;;;;;4.95;2.17;;;;;11.30;97989.00;;;;5054096;28;20041;-56
2023/04/12 00:03:19;;;;;;;4.63;1.67;;;;;11.30;97983.00;;;;5055455;28;20548;-59
2023/04/12 00:05:47;;;;;;;7.55;2.35;;;;;11.30;97978.00;;;;5055628;28;20453;-58
2023/04/12 00:08:15;;;;;;;8.50;2.20;;;;;11.30;97977.00;;;;5055348;28;20493;-58
2023/04/12 00:10:42;;;;;;;6.47;1.90;;;;;11.30;97967.00;;;;5055365;28;20056;-57
2023/04/12 00:13:08;;;;;;;5.88;1.90;;;;;11.20;97968.00;;;;5055289;28;20080;-58
2023/04/12 00:15:35;;;;;;;2.85;1.70;;;;;11.20;97952.00;;;;5054060;28;20056;-57
2023/04/12 00:18:02;;;;;;;6.97;2.15;;;;;11.20;97954.00;;;;5055220;28;20135;-59
2023/04/12 00:20:28;;;;;;;3.60;1.90;;;;;11.20;97959.00;;;;5055001;28;20129;-58
2023/04/12 00:22:56;;;;;;;3.40;1.45;;;;;11.10;97949.00;;;;5055122;28;20403;-57
2023/04/12 00:25:23;;;;;;;5.78;1.88;;;;;11.10;97943.00;;;;5055028;28;20387;-59
2023/04/12 00:27:50;;;;;;;5.28;1.95;;;;;11.10;97938.00;;;;5055317;28;20378;-59
2023/04/12 00:30:16;;;;;;;5.78;2.22;;;;;11.10;97938.00;;;;5054837;28;20037;-57
2023/04/12 00:32:43;;;;;;;6.07;1.67;;;;;11.10;97931.00;;;;5055952;28;20124;-58
2023/04/12 00:35:10;;;;;;;4.70;2.00;;;;;11.20;97917.00;;;;5054514;28;20045;-57
2023/04/12 00:37:38;;;;;;;3.88;1.40;;;;;11.20;97914.00;;;;5053968;28;20055;-59
2023/04/12 00:40:07;;;;;;;4.47;1.52;;;;;11.20;97914.00;;;;5054689;28;20062;-59
2023/04/12 00:42:35;;;;;;;3.95;1.67;;;;;11.20;97907.00;;;;5053704;28;20460;-58
2023/04/12 00:45:02;;;;;;;2.70;1.42;;;;;11.20;97895.00;;;;5055436;28;20049;-60
2023/04/12 00:47:29;;;;;;;4.60;1.75;;;;;11.20;97890.00;;;;5055445;28;20120;-61
2023/04/12 00:49:57;;;;;;;3.83;1.85;;;;;11.00;97884.00;;;;5053678;28;20052;-60
2023/04/12 00:52:26;;;;;;;6.25;1.65;;;;;10.90;97881.00;;;;5054950;28;20048;-62
2023/04/12 00:54:53;;;;;;;6.53;1.80;;;;;10.90;97879.00;;;;5054229;28;20056;-61
2023/04/12 00:57:21;;;;;;;4.78;1.67;;;;;10.70;97875.00;;;;5054678;28;20037;-61
2023/04/12 00:59:47;;;;;;;2.42;1.65;;;;;10.70;97870.00;;;;5054711;28;20045;-61
2023/04/12 01:02:16;;;;;;;3.08;1.50;;;;;10.80;97858.00;;;;5053191;28;20132;-59
2023/04/12 01:04:44;;;;;;;4.95;1.60;;;;;10.70;97856.00;;;;5054369;28;20095;-59
2023/04/12 01:07:36;;;;;;;4.53;1.80;;;;;10.80;97844.00;;;;5053280;28;20060;-59
2023/04/12 01:10:19;;;;;;;5.28;2.58;;;;;10.80;97843.00;;;;5052852;28;20494;-57
2023/04/12 01:12:51;;;;;;;4.47;2.20;;;;;10.60;97838.00;;;;5053205;28;20494;-61
2023/04/12 01:15:19;;;;;;;4.38;1.95;;;;;10.50;97839.00;;;;5052972;28;20099;-61
2023/04/12 01:17:49;;;;;;;5.22;1.65;;;;;10.60;97830.00;;;;5053059;28;20056;-60
2023/04/12 01:20:23;;;;;;;4.00;1.80;;;;;10.60;97815.00;;;;5053924;28;20049;-61
2023/04/12 01:23:11;;;;;;;;;;;;;10.70;97820.00;;;;5054907;28;20075;-61
2023/04/12 01:26:16;;;;;;;4.03;1.95;;;;;10.60;97818.00;;;;5036374;28;19942;-60
2023/04/12 01:28:44;;;;;;;7.40;2.05;;;;;10.50;97801.00;;;;5054024;28;20513;-61
2023/04/12 01:31:12;;;;;;;3.60;1.70;;;;;10.50;97802.00;;;;5053045;28;20045;-61
2023/04/12 01:33:41;;;;;;;5.43;1.83;;;;;10.60;97789.00;;;;5054098;28;20076;-59
2023/04/12 01:36:16;;;;;;;5.55;1.80;;;;;10.60;97793.00;;;;5052767;28;20052;-59
2023/04/12 01:38:44;;;;;;;6.30;2.40;;;;;10.60;97787.00;;;;5053693;28;20079;-59
2023/04/12 01:41:11;;;;;;;4.68;2.05;;;;;10.70;97786.00;;;;5053869;28;20048;-59
2023/04/12 01:43:45;;;;;;;3.85;1.50;;;;;10.60;97779.00;;;;5052923;28;20052;-60
2023/04/12 01:46:12;;;;;;;;;;;;;10.70;97769.00;;;;5054564;28;20049;-62
2023/04/12 01:48:40;;;;;;;3.05;1.35;;;;;10.60;97765.00;;;;5052563;28;19921;-59
2023/04/12 01:51:14;;;;;;;4.03;1.70;;;;;10.60;97754.00;;;;5053901;28;20099;-59
2023/04/12 01:54:10;;;;;;;5.88;2.58;;;;;10.70;97751.00;;;;5053280;28;20102;-58
2023/04/12 01:56:40;;;;;;;4.20;1.80;;;;;10.60;97747.00;;;;5053047;28;20057;-59
2023/04/12 01:59:08;;;;;;;2.28;1.63;;;;;10.60;97748.00;;;;5052948;28;20048;-57
2023/04/12 02:01:35;;;;;;;7.05;1.92;;;;;10.60;97737.00;;;;5053686;28;20083;-60
2023/04/12 02:04:05;;;;;;;6.38;1.75;;;;;10.60;97740.00;;;;5052389;28;20041;-59
2023/04/12 02:06:32;;;;;;;2.45;1.58;;;;;10.70;97736.00;;;;5052977;28;20127;-60
2023/04/12 02:09:01;;;;;;;5.20;1.60;;;;;10.60;97727.00;;;;5051980;28;20403;-58
2023/04/12 02:11:28;;;;;;;5.32;1.67;;;;;10.50;97718.00;;;;5053347;28;20033;-61
2023/04/12 02:13:55;;;;;;;3.40;1.65;;;;;10.40;97720.00;;;;5052099;28;20116;-58
2023/04/12 02:16:22;;;;;;;3.28;1.33;;;;;10.40;97719.00;;;;5053503;28;20045;-59
2023/04/12 02:18:50;;;;;;;4.20;2.08;;;;;10.30;97712.00;;;;5052054;28;20041;-59
2023/04/12 02:21:17;;;;;;;3.70;1.85;;;;;10.30;97705.00;;;;5051858;28;20049;-59
2023/04/12 02:23:43;;;;;;;2.92;1.60;;;;;10.40;97707.00;;;;5053867;28;20045;-60
2023/04/12 02:26:10;;;;;;;5.18;1.83;;;;;10.30;97694.00;;;;5054544;28;20498;-61
2023/04/12 02:28:37;;;;;;;4.03;1.98;;;;;10.40;97692.00;;;;5053311;28;20053;-61
2023/04/12 02:31:07;;;;;;;4.88;1.50;;;;;10.40;97677.00;;;;5052343;28;20132;-61
2023/04/12 02:33:34;;;;;;;2.75;1.65;;;;;10.50;97676.00;;;;5052420;28;20052;-61
2023/04/12 02:36:09;;;;;;;2.78;1.40;;;;;10.40;97672.00;;;;5051643;28;20049;-62
2023/04/12 02:38:35;;;;;;;4.72;3.00;;;;;10.30;97668.00;;;;5052555;28;20094;-60
2023/04/12 02:41:04;;;;;;;5.97;3.55;;;;;10.30;97655.00;;;;5051794;28;20083;-61
2023/04/12 02:43:32;;;;;;;6.03;2.70;;;;;10.40;97655.00;;;;5053003;28;20044;-61
2023/04/12 02:46:03;;;;;;;5.18;1.65;;;;;10.40;97646.00;;;;5035733;28;20052;-61
2023/04/12 02:48:37;;;;;;;4.68;1.58;;;;;10.30;97638.00;;;;5051405;28;20053;-61
2023/04/12 02:51:04;;;;;;;4.20;1.70;;;;;10.40;97626.00;;;;5051282;28;20044;-61
2023/04/12 02:53:32;;;;;;;2.72;1.42;;;;;10.40;97623.00;;;;5051349;28;20045;-61
2023/04/12 02:56:17;;;;;;;4.85;1.60;;;;;10.30;97613.00;;;;5051295;28;20049;-62
2023/04/12 02:58:47;;;;;;;1.65;1.20;;;;;10.10;97605.00;;;;5051273;28;20060;-61
2023/04/12 03:01:21;;;;;;;;;;;;;10.20;97600.00;;;;5051823;28;20564;-61
2023/04/12 03:04:14;;;;;;;4.20;1.60;;;;;10.20;97599.00;;;;5051470;28;19928;-61
2023/04/12 03:06:53;;;;;;;2.00;1.42;;;;;10.20;97595.00;;;;5051424;28;20073;-61
2023/04/12 03:09:27;;;;;;;3.17;1.50;;;;;10.20;97586.00;;;;5051058;28;20421;-61
2023/04/12 03:11:54;;;;;;;1.92;1.33;;;;;10.10;97574.00;;;;5052112;28;20055;-61
2023/04/12 03:14:21;;;;;;;3.45;1.58;;;;;10.00;97576.00;;;;5051433;28;20510;-61
2023/04/12 03:16:50;;;;;;;3.90;1.73;;;;;10.10;97572.00;;;;5051012;28;20048;-60
2023/04/12 03:19:17;;;;;;;6.60;1.63;;;;;10.10;97560.00;;;;5050853;28;20045;-60
2023/04/12 03:21:50;;;;;;;5.22;1.50;;;;;10.00;97546.00;;;;5051013;28;20131;-60
2023/04/12 03:24:17;;;;;;;4.80;1.35;;;;;9.90;97542.00;;;;5051202;28;20041;-59
2023/04/12 03:26:44;;;;;;;2.88;1.17;;;;;9.80;97528.00;;;;5050924;28;20136;-60
2023/04/12 03:29:15;;;;;;;2.85;1.30;;;;;9.80;97523.00;;;;5050853;28;20052;-61
2023/04/12 03:31:43;;;;;;;2.95;1.42;;;;;9.80;97517.00;;;;5050876;28;20045;-60
2023/04/12 03:34:10;;;;;;;3.08;1.52;;;;;9.80;97503.00;;;;5051100;28;20060;-61
2023/04/12 03:36:41;;;;;;;2.40;1.60;;;;;9.90;97500.00;;;;5050828;28;20132;-61
2023/04/12 03:39:17;;;;;;;1.77;1.20;;;;;9.80;97493.00;;;;5050619;28;20071;-61
2023/04/12 03:41:48;;;;;;;2.13;1.33;;;;;9.80;97483.00;;;;5050675;28;20387;-61
2023/04/12 03:44:15;;;;;;;2.55;1.40;;;;;9.80;97475.00;;;;5050770;28;20044;-61
2023/04/12 03:46:41;;;;;;;4.03;1.58;;;;;9.90;97477.00;;;;5050645;28;20048;-61
2023/04/12 03:49:10;;;;;;;6.22;1.50;;;;;9.90;97463.00;;;;5050118;28;20053;-61
2023/04/12 03:51:41;;;;;;;5.95;1.65;;;;;9.80;97470.00;;;;5050446;28;20041;-60
2023/04/12 03:54:10;;;;;;;2.42;1.30;;;;;9.80;97469.00;;;;5050989;28;20441;-59
2023/04/12 03:56:47;;;;;;;4.03;1.75;;;;;9.90;97464.00;;;;5050755;28;20049;-60
2023/04/12 03:59:22;;;;;;;4.32;1.80;;;;;9.90;97463.00;;;;5051661;28;20041;-59
2023/04/12 04:01:49;;;;;;;3.38;1.23;;;;;9.90;97450.00;;;;5050352;28;20151;-61
2023/04/12 04:04:16;;;;;;;2.88;1.40;;;;;10.00;97457.00;;;;5050299;28;20041;-59
2023/04/12 04:06:43;;;;;;;2.90;1.58;;;;;10.10;97449.00;;;;5050299;28;20045;-60
2023/04/12 04:09:10;;;;;;;3.00;1.40;;;;;10.10;97442.00;;;;5050491;28;20044;-59
2023/04/12 04:11:37;;;;;;;3.83;1.98;;;;;10.20;97447.00;;;;5050244;28;20045;-61
2023/04/12 04:14:06;;;;;;;1.42;1.10;;;;;10.20;97426.00;;;;5050380;28;20051;-59
2023/04/12 04:16:32;;;;;;;3.58;1.20;;;;;10.20;97432.00;;;;5034118;28;20091;-59
2023/04/12 04:19:01;;;;;;;1.80;1.20;;;;;10.00;97421.00;;;;5033918;28;20596;-60
2023/04/12 04:21:31;;;;;;;3.85;1.55;;;;;10.00;97414.00;;;;5050186;28;20453;-60
2023/04/12 04:24:00;;;;;;;2.22;1.38;;;;;10.00;97414.00;;;;5050619;28;20049;-60
2023/04/12 04:26:32;;;;;;;3.15;1.20;;;;;10.00;97427.00;;;;5050850;28;20075;-58
2023/04/12 04:29:10;;;;;;;8.57;4.32;;;;;10.00;97414.00;;;;5050795;28;20056;-59
2023/04/12 04:31:38;;;;;;;3.95;1.80;;;;;10.00;97408.00;;;;5053616;28;20497;-59
2023/04/12 04:34:06;;;;;;;2.35;1.35;;;;;10.00;97397.00;;;;5054979;28;20050;-58
2023/04/12 04:36:40;;;;;;;2.08;1.20;;;;;10.00;97392.00;;;;5054383;28;20106;-61
2023/04/12 04:39:07;;;;;;;1.77;1.10;;;;;9.90;97380.00;;;;5053778;28;20073;-58
2023/04/12 04:41:40;;;;;;;2.20;1.40;;;;;9.90;97376.00;;;;5054133;28;20106;-59
2023/04/12 04:44:12;;;;;;;3.40;1.63;;;;;9.90;97369.00;;;;5053993;28;20053;-58
2023/04/12 04:46:47;;;;;;;1.63;1.20;;;;;10.00;97376.00;;;;5053968;28;20041;-59
2023/04/12 04:49:14;;;;;;;2.05;1.00;;;;;10.00;97377.00;;;;5053573;28;20114;-60
2023/04/12 04:51:40;;;;;;;2.50;1.30;;;;;10.00;97368.00;;;;5053978;28;20047;-59
2023/04/12 04:54:10;;;;;;;2.25;1.20;;;;;9.90;97359.00;;;;5053815;28;20076;-59
2023/04/12 04:56:39;;;;;;;3.10;1.45;;;;;9.90;97353.00;;;;5054047;28;20418;-58
2023/04/12 04:59:07;;;;;;;1.88;1.27;;;;;9.90;97338.00;;;;5053463;28;20056;-60
2023/04/12 05:01:35;;;;;;;2.03;1.10;;;;;9.90;97338.00;;;;5054028;28;20049;-59
2023/04/12 05:04:03;;;;;;;1.63;1.23;;;;;10.00;97343.00;;;;5053695;28;20053;-64
2023/04/12 05:06:34;;;;;;;1.92;1.27;;;;;10.10;97337.00;;;;5037569;28;20584;-58
2023/04/12 05:09:02;;;;;;;1.70;1.10;;;;;10.10;97324.00;;;;5053345;28;20131;-59
2023/04/12 05:11:34;;;;;;;2.00;1.38;;;;;10.10;97325.00;;;;5053379;28;20041;-59
2023/04/12 05:14:03;;;;;;;1.58;1.00;;;;;10.00;97318.00;;;;5053377;28;20049;-60
2023/04/12 05:16:30;;;;;;;2.42;1.00;;;;;10.00;97318.00;;;;5054081;28;20056;-58
2023/04/12 05:18:57;;;;;;;4.28;1.40;;;;;10.10;97315.00;;;;5054595;28;20497;-57
2023/04/12 05:21:23;;;;;;;1.65;1.38;;;;;10.30;97314.00;;;;5053208;28;20045;-59
2023/04/12 05:23:50;;;;;;;1.90;1.65;;;;;10.30;97318.00;;;;5053357;28;20052;-60
2023/04/12 05:26:17;;;;;;;2.80;1.55;;;;;10.30;97312.00;;;;5053491;28;20140;-56
2023/04/12 05:28:47;;;;;;;3.92;2.20;;;;;10.30;97308.00;;;;5036284;28;20049;-59
2023/04/12 05:31:16;;;;;;;3.47;1.60;;;;;10.40;97309.00;;;;5052687;28;20041;-57
2023/04/12 05:33:44;;;;;;;3.83;1.90;;;;;10.40;97298.00;;;;5052439;28;20553;-61
2023/04/12 05:36:11;;;;;;;2.38;1.40;;;;;10.40;97296.00;;;;5052914;28;20465;-59
2023/04/12 05:38:37;;;;;;;16.10;10.60;;;;;10.50;97281.00;;;;5053724;28;20072;-59
2023/04/12 05:41:10;;;;;;;5.22;2.60;;;;;10.50;97278.00;;;;5051890;28;20045;-59
2023/04/12 05:43:37;;;;;;;4.72;1.88;;;;;10.50;97279.00;;;;5051790;28;20041;-59
2023/04/12 05:46:06;;;;;;;5.35;1.67;;;;;10.60;97270.00;;;;5052418;28;20045;-59
2023/04/12 05:48:34;;;;;;;2.00;1.60;;;;;10.60;97256.00;;;;5051842;28;20049;-57
2023/04/12 05:51:01;;;;;;;2.03;1.60;;;;;10.50;97270.00;;;;5053425;28;20047;-57
2023/04/12 05:53:31;;;;;;;2.97;1.55;;;;;10.60;97261.00;;;;5052134;28;20047;-59
2023/04/12 05:56:01;;;;;;;2.03;1.27;;;;;10.70;97245.00;;;;5052207;28;20049;-59
2023/04/12 05:58:28;;;;;;;5.63;2.33;;;;;10.60;97234.00;;;;5051959;28;20167;-61
2023/04/12 06:00:55;;;;;;;3.13;1.80;;;;;10.60;97234.00;;;;5051887;28;20426;-60
2023/04/12 06:03:25;;;;;;;2.40;1.45;;;;;10.70;97228.00;;;;5052253;28;20520;-59
2023/04/12 06:05:56;;;;;;;2.40;1.60;;;;;10.80;97233.00;;;;5051893;28;20049;-60
2023/04/12 06:08:23;;;;;;;2.58;1.73;;;;;10.70;97218.00;;;;5051899;28;20422;-59
2023/04/12 06:10:49;;;;;;;2.53;1.80;;;;;10.70;97221.00;;;;5051598;28;20048;-59
2023/04/12 06:13:16;;;;;;;5.57;1.77;;;;;10.80;97224.00;;;;5051808;28;20037;-59
2023/04/12 06:15:44;;;;;;;2.47;1.33;;;;;10.80;97211.00;;;;5051757;28;20166;-60
2023/04/12 06:18:11;;;;;;;4.25;1.60;;;;;10.90;97213.00;;;;5035249;28;20045;-60
2023/04/12 06:20:39;;;;;;;2.72;1.35;;;;;10.90;97212.00;;;;5051449;28;20045;-59
2023/04/12 06:23:06;;;;;;;5.72;1.65;;;;;10.90;97206.00;;;;5052918;28;20071;-60
2023/04/12 06:25:33;;;;;;;2.22;1.20;;;;;10.90;97213.00;;;;5051603;28;20052;-60
2023/04/12 06:28:00;;;;;;;3.70;1.40;;;;;10.90;97229.00;;;;5051677;28;20490;-58
2023/04/12 06:30:27;;;;;;;2.97;1.50;;;;;10.90;97231.00;;;;5052700;28;20135;-59
2023/04/12 06:32:54;;;;;;;3.67;1.60;;;;;11.00;97214.00;;;;5051268;28;20110;-60
2023/04/12 06:35:21;;;;;;;3.53;1.40;;;;;11.00;97210.00;;;;5051727;28;20559;-59
2023/04/12 06:37:48;;;;;;;3.08;1.65;;;;;11.00;97208.00;;;;5051461;28;20055;-60
2023/04/12 06:40:15;;;;;;;4.45;1.80;;;;;11.10;97205.00;;;;5052340;28;20139;-59
2023/04/12 06:42:41;;;;;;;3.72;1.45;;;;;11.10;97198.00;;;;5052623;28;20045;-58
2023/04/12 06:45:09;;;;;;;3.83;2.13;;;;;11.10;97181.00;;;;5051373;28;20095;-57
2023/04/12 06:47:35;;;;;;;2.58;1.15;;;;;11.10;97190.00;;;;5052784;28;20091;-58
2023/04/12 06:50:02;;;;;;;2.53;1.27;;;;;11.00;97175.00;;;;5051297;28;20045;-57
2023/04/12 06:52:29;;;;;;;3.63;1.55;;;;;11.10;97166.00;;;;5052347;28;20494;-59
2023/04/12 06:54:55;;;;;;;1.52;1.30;;;;;11.10;97162.00;;;;5052320;28;20440;-58
2023/04/12 06:57:22;;;;;;;1.48;1.38;;;;;11.10;97157.00;;;;5052582;28;20133;-60
2023/04/12 06:59:49;;;;;;;3.78;1.60;;;;;11.20;97168.00;;;;5052584;28;20437;-60
2023/04/12 07:02:16;;;;;;;1.80;1.42;;;;;11.30;97160.00;;;;5052495;28;20120;-58
2023/04/12 07:04:42;;;;;;;2.95;1.40;;;;;11.30;97149.00;;;;5061262;28;20064;-59
2023/04/12 07:07:09;;;;;;;2.08;1.75;;;;;11.30;97125.00;;;;5061882;28;20079;-60
2023/04/12 07:09:35;;;;;;;3.67;1.58;;;;;11.30;97116.00;;;;5062228;28;20045;-57
2023/04/12 07:12:02;;;;;;;9.07;5.80;;;;;11.30;97109.00;;;;5059571;28;20083;-58
2023/04/12 07:14:29;;;;;;;5.68;3.97;;;;;11.30;97105.00;;;;5059965;28;20045;-59
2023/04/12 07:16:55;;;;;;;4.88;3.30;;;;;11.30;97111.00;;;;5059322;28;20068;-58
2023/04/12 07:19:22;;;;;;;5.40;3.08;;;;;11.30;97107.00;;;;5060034;28;20040;-58
2023/04/12 07:21:48;;;;;;;6.45;1.77;;;;;11.40;97103.00;;;;5056647;28;20456;-59
2023/04/12 07:24:15;;;;;;;4.10;1.50;;;;;11.40;97106.00;;;;5056485;28;20386;-58
2023/04/12 07:26:41;;;;;;;3.28;1.85;;;;;11.30;97090.00;;;;5056610;28;20044;-59
2023/04/12 07:29:08;;;;;;;3.33;2.03;;;;;11.30;97085.00;;;;5056684;28;20045;-57
2023/04/12 07:31:34;;;;;;;2.97;1.65;;;;;11.30;97083.00;;;;5051990;28;20045;-58
2023/04/12 07:34:01;;;;;;;3.08;1.88;;;;;11.30;97074.00;;;;5051896;28;20060;-58
2023/04/12 07:36:28;;;;;;;4.72;2.83;;;;;11.40;97070.00;;;;5051784;28;20041;-60
2023/04/12 07:38:54;;;;;;;2.13;1.63;;;;;11.40;97070.00;;;;5051582;28;20045;-60
2023/04/12 07:41:22;;;;;;;3.60;2.60;;;;;11.40;97069.00;;;;5051675;28;20107;-60
2023/04/12 07:43:48;;;;;;;5.47;2.83;;;;;11.50;97076.00;;;;5050389;28;20041;-60
2023/04/12 07:46:15;;;;;;;2.13;1.80;;;;;11.40;97079.00;;;;5050625;28;20107;-58
2023/04/12 07:48:43;;;;;;;3.13;1.88;;;;;11.40;97075.00;;;;5051497;28;20044;-58
2023/04/12 07:51:09;;;;;;;4.40;1.98;;;;;11.40;97068.00;;;;5051730;28;20045;-57
2023/04/12 07:53:36;;;;;;;2.72;1.38;;;;;11.40;97069.00;;;;5051793;28;20037;-60
2023/04/12 07:56:05;;;;;;;4.35;2.35;;;;;11.40;97061.00;;;;5051803;28;20099;-60
2023/04/12 07:58:32;;;;;;;4.95;1.80;;;;;11.50;97063.00;;;;5051554;28;20539;-59
2023/04/12 08:00:59;;;;;;;2.47;1.60;;;;;11.60;97065.00;;;;5053068;28;20040;-59
2023/04/12 08:03:26;;;;;;;3.92;1.75;;;;;11.50;97064.00;;;;5055709;28;20474;-59
2023/04/12 08:05:53;;;;;;;2.38;1.70;;;;;11.50;97071.00;;;;5054947;28;20068;-60
2023/04/12 08:08:21;;;;;;;2.90;1.48;;;;;11.50;97078.00;;;;5056319;28;20049;-59
2023/04/12 08:10:48;;;;;;;8.35;2.28;;;;;11.60;97070.00;;;;5055856;28;20048;-59
2023/04/12 08:13:15;;;;;;;2.75;1.85;;;;;11.70;97062.00;;;;5056068;28;20041;-61
2023/04/12 08:15:42;;;;;;;2.58;1.90;;;;;11.70;97063.00;;;;5055664;28;20045;-59
2023/04/12 08:18:09;;;;;;;3.58;2.00;;;;;11.70;97050.00;;;;5055268;28;20045;-61
2023/04/12 08:20:39;;;;;;;2.70;2.08;;;;;11.70;97057.00;;;;5055186;28;20057;-59
2023/04/12 08:23:06;;;;;;;3.72;1.65;;;;;11.80;97057.00;;;;5055189;28;20033;-59
2023/04/12 08:25:33;;;;;;;4.15;2.80;;;;;11.90;97046.00;;;;5055903;28;20550;-58
2023/04/12 08:27:59;;;;;;;3.38;2.35;;;;;11.90;97052.00;;;;5055745;28;20049;-60
2023/04/12 08:30:26;;;;;;;2.47;1.73;;;;;11.90;97064.00;;;;5055135;28;20099;-59
2023/04/12 08:32:53;;;;;;;3.03;2.13;;;;;11.90;97063.00;;;;5053916;28;20041;-59
2023/04/12 08:35:21;;;;;;;3.92;1.85;;;;;11.90;97055.00;;;;5055331;28;20041;-57
2023/04/12 08:37:48;;;;;;;2.92;1.80;;;;;11.90;97049.00;;;;5055363;28;20052;-58
2023/04/12 08:40:15;;;;;;;5.03;1.80;;;;;11.90;97050.00;;;;5054864;28;20049;-57
2023/04/12 08:42:42;;;;;;;3.33;1.58;;;;;12.00;97046.00;;;;5054789;28;20068;-60
2023/04/12 08:45:11;;;;;;;3.28;1.80;;;;;12.10;97045.00;;;;5055223;28;20049;-60
2023/04/12 08:47:40;;;;;;;3.00;1.38;;;;;12.10;97040.00;;;;5055523;28;20048;-58
2023/04/12 08:50:08;;;;;;;2.05;1.60;;;;;12.10;97029.00;;;;5054975;28;20052;-58
2023/04/12 08:52:36;;;;;;;3.13;1.52;;;;;12.20;97032.00;;;;5055287;28;20045;-59
2023/04/12 08:55:07;;;;;;;5.45;2.90;;;;;12.30;97031.00;;;;5055320;28;20413;-58
2023/04/12 08:57:35;;;;;;;2.53;1.38;;;;;12.50;97021.00;;;;5055334;28;20132;-61
2023/04/12 09:00:02;;;;;;;2.10;1.50;;;;;12.70;97026.00;;;;5055560;28;20049;-59
2023/04/12 09:02:30;;;;;;;3.15;1.42;;;;;12.80;97009.00;;;;5055839;28;20117;-57
2023/04/12 09:04:57;;;;;;;2.05;1.33;;;;;12.90;97015.00;;;;5056324;28;20048;-59
2023/04/12 09:07:27;;;;;;;4.95;1.77;;;;;12.80;97010.00;;;;5055648;28;20513;-60
2023/04/12 09:09:54;;;;;;;3.17;1.30;;;;;12.90;97009.00;;;;5055128;28;20051;-58
2023/04/12 09:12:22;;;;;;;2.70;1.40;;;;;12.80;97020.00;;;;5055825;28;20040;-60
2023/04/12 09:15:12;;;;;;;3.92;1.50;;;;;12.80;97002.00;;;;5055709;28;20490;-59
2023/04/12 09:17:40;;;;;;;2.58;1.90;;;;;12.80;97011.00;;;;5055591;28;20129;-60
2023/04/12 09:20:16;;;;;;;2.45;1.50;;;;;12.90;97001.00;;;;5055445;28;20513;-60
2023/04/12 09:22:44;;;;;;;2.40;1.63;;;;;13.00;97005.00;;;;5056033;28;20065;-59
2023/04/12 09:25:11;;;;;;;2.17;1.58;;;;;13.00;97007.00;;;;5056158;28;20056;-58
2023/04/12 09:27:47;;;;;;;4.78;1.65;;;;;13.00;97008.00;;;;5055630;28;20036;-59
2023/04/12 09:30:15;;;;;;;3.17;1.60;;;;;12.90;97008.00;;;;5055349;28;20148;-59
2023/04/12 09:32:42;;;;;;;5.47;1.80;;;;;12.80;96993.00;;;;5054253;28;20079;-59
2023/04/12 09:35:09;;;;;;;2.22;1.45;;;;;12.70;97003.00;;;;5054020;28;20494;-58
2023/04/12 09:37:36;;;;;;;2.28;1.77;;;;;12.70;96996.00;;;;5054065;28;20492;-60
2023/04/12 09:40:05;;;;;;;5.03;2.00;;;;;12.80;96991.00;;;;5053869;28;20051;-61
2023/04/12 09:42:49;;;;;;;4.55;1.90;;;;;12.90;96986.00;;;;5052748;28;20094;-61
2023/04/12 09:45:21;;;;;;;4.20;2.80;;;;;13.00;96980.00;;;;5054302;28;20048;-59
2023/04/12 09:47:48;;;;;;;5.13;1.88;;;;;13.00;96980.00;;;;5053041;28;20044;-59
2023/04/12 09:50:26;;;;;;;2.38;1.77;;;;;13.10;96970.00;;;;5054106;28;20056;-60
2023/04/12 09:52:56;;;;;;;4.03;1.90;;;;;13.30;96962.00;;;;5053870;28;20099;-60
2023/04/12 09:55:28;;;;;;;3.75;1.75;;;;;13.50;96969.00;;;;5053697;28;20045;-60
2023/04/12 09:57:55;;;;;;;2.65;1.52;;;;;13.50;96958.00;;;;5052352;28;20055;-61
2023/04/12 10:00:24;;;;;;;2.63;1.83;;;;;13.60;96966.00;;;;5053314;28;20064;-58
2023/04/12 10:02:52;;;;;;;2.70;1.60;;;;;13.80;96950.00;;;;5053412;28;20087;-61
2023/04/12 10:05:21;;;;;;;2.10;1.42;;;;;14.10;96954.00;;;;5052357;28;20073;-59
2023/04/12 10:07:49;;;;;;;1.80;1.70;;;;;14.40;96941.00;;;;5052257;28;20087;-60
2023/04/12 10:10:17;;;;;;;3.03;1.90;;;;;14.70;96945.00;;;;5053151;28;20048;-59
2023/04/12 10:12:45;;;;;;;4.20;1.80;;;;;14.90;96940.00;;;;5053292;28;20067;-60
2023/04/12 10:15:15;;;;;;;2.92;1.48;;;;;14.90;96947.00;;;;5053310;28;20482;-59
2023/04/12 10:17:45;;;;;;;1.88;1.40;;;;;14.90;96952.00;;;;5053873;28;20067;-61
2023/04/12 10:20:14;;;;;;;2.35;1.60;;;;;14.80;96959.00;;;;5052052;28;20490;-60
2023/04/12 10:22:42;;;;;;;2.38;1.70;;;;;14.50;96950.00;;;;5055212;28;20056;-60
2023/04/12 10:25:11;;;;;;;2.72;1.52;;;;;14.40;96948.00;;;;5055175;28;20129;-59
2023/04/12 10:27:42;;;;;;;5.40;1.40;;;;;14.00;96948.00;;;;5054605;28;20041;-60
2023/04/12 10:30:38;;;;;;;3.33;1.95;;;;;13.70;96952.00;;;;5054243;28;20037;-58
2023/04/12 10:33:05;;;;;;;1.58;1.25;;;;;13.50;96950.00;;;;5048580;28;20529;-58
2023/04/12 10:35:47;;;;;;;1.90;1.60;;;;;13.50;96951.00;;;;5053259;28;20037;-58
2023/04/12 10:38:14;;;;;;;4.88;1.83;;;;;13.40;96940.00;;;;5053146;28;20041;-60
2023/04/12 10:41:10;;;;;;;2.65;1.40;;;;;13.60;96944.00;;;;5052785;28;20044;-58
2023/04/12 10:43:37;;;;;;;1.75;1.40;;;;;13.50;96935.00;;;;5052828;28;20047;-59
2023/04/12 10:46:05;;;;;;;5.90;1.65;;;;;13.50;96945.00;;;;5052863;28;20051;-59
2023/04/12 10:48:38;;;;;;;2.63;1.52;;;;;13.60;96936.00;;;;5052724;28;20069;-61
2023/04/12 10:51:24;;;;;;;1.90;1.40;;;;;13.80;96940.00;;;;5052529;28;20052;-59
2023/04/12 10:53:52;;;;;;;1.60;1.42;;;;;13.80;96944.00;;;;5051313;28;20045;-60
2023/04/12 10:56:28;;;;;;;2.83;1.80;;;;;13.80;96935.00;;;;5051196;28;20048;-60
2023/04/12 10:59:02;;;;;;;3.78;1.60;;;;;13.90;96929.00;;;;5052419;28;20438;-60
2023/04/12 11:02:14;;;;;;;3.15;1.60;;;;;13.80;96937.00;;;;5052125;28;20522;-60
2023/04/12 11:05:18;;;;;;;3.22;1.30;;;;;13.90;96934.00;;;;5049294;28;20041;-60
2023/04/12 11:07:52;;;;;;;3.17;1.40;;;;;13.90;96931.00;;;;5047918;28;20457;-59
2023/04/12 11:10:38;;;;;;;2.30;1.50;;;;;13.90;96924.00;;;;5052001;28;20111;-59
2023/04/12 11:13:07;;;;;;;1.75;1.23;;;;;13.90;96916.00;;;;5052143;28;20053;-59
2023/04/12 11:15:38;;;;;;;1.98;1.40;;;;;14.10;96918.00;;;;5052136;28;20045;-58
2023/04/12 11:18:11;;;;;;;1.70;1.40;;;;;14.20;96919.00;;;;5052273;28;20039;-60
2023/04/12 11:20:41;;;;;;;1.75;1.50;;;;;14.20;96916.00;;;;5052066;28;20091;-59
2023/04/12 11:23:07;;;;;;;1.58;1.33;;;;;14.50;96917.00;;;;5052682;28;20041;-60
2023/04/12 11:25:37;;;;;;;1.60;1.30;;;;;14.80;96904.00;;;;5052876;28;20037;-60
2023/04/12 11:28:04;;;;;;;1.50;1.33;;;;;15.00;96908.00;;;;5052896;28;20037;-61
2023/04/12 11:30:57;;;;;;;3.33;1.75;;;;;15.10;96915.00;;;;5053555;28;20051;-58
2023/04/12 11:33:34;;;;;;;3.55;1.25;;;;;15.10;96907.00;;;;5053627;28;20045;-58
2023/04/12 11:36:11;;;;;;;1.70;1.50;;;;;15.10;96910.00;;;;5052526;28;20044;-58
2023/04/12 11:38:37;;;;;;;2.88;1.17;;;;;15.20;96898.00;;;;5051979;28;20127;-58
2023/04/12 11:41:06;;;;;;;3.55;1.45;;;;;15.40;96908.00;;;;5054621;28;20101;-58
2023/04/12 11:43:34;;;;;;;2.20;1.40;;;;;15.40;96896.00;;;;5056211;28;20449;-59
2023/04/12 11:46:00;;;;;;;2.28;1.17;;;;;15.50;96896.00;;;;5056107;28;20072;-57
2023/04/12 11:48:28;;;;;;;4.00;1.38;;;;;15.50;96885.00;;;;5056038;28;20055;-60
2023/04/12 11:50:56;;;;;;;3.88;1.73;;;;;15.60;96879.00;;;;5055809;28;20122;-58
2023/04/12 11:53:36;;;;;;;4.22;1.58;;;;;15.80;96884.00;;;;5056135;28;20045;-60
2023/04/12 11:56:03;;;;;;;3.28;1.40;;;;;15.70;96885.00;;;;5055714;28;20053;-59
2023/04/12 11:58:29;;;;;;;3.80;1.60;;;;;15.70;96888.00;;;;5055680;28;20055;-59
2023/04/12 12:00:57;;;;;;;3.25;1.30;;;;;15.80;96891.00;;;;5055538;28;20045;-58
2023/04/12 12:03:24;;;;;;;2.63;1.38;;;;;15.80;96897.00;;;;5056466;28;20056;-59
2023/04/12 12:05:51;;;;;;;3.75;1.80;;;;;15.70;96893.00;;;;5055744;28;20044;-60
2023/04/12 12:08:18;;;;;;;4.20;1.73;;;;;15.60;96901.00;;;;5054549;28;20076;-59
2023/04/12 12:10:46;;;;;;;1.88;1.20;;;;;15.60;96895.00;;;;5055171;28;20049;-59
2023/04/12 12:13:17;;;;;;;2.13;1.15;;;;;15.40;96885.00;;;;5055521;28;20106;-60
2023/04/12 12:15:44;;;;;;;3.05;1.10;;;;;15.30;96889.00;;;;5055322;28;20494;-59
2023/04/12 12:18:11;;;;;;;6.03;1.52;;;;;15.10;96904.00;;;;5055325;28;20123;-58
2023/04/12 12:20:46;;;;;;;1.92;1.40;;;;;14.90;96899.00;;;;5055093;28;20041;-62
2023/04/12 12:23:35;;;;;;;2.85;1.40;;;;;14.70;96886.00;;;;5055484;28;20045;-57
2023/04/12 12:26:02;;;;;;;1.17;1.00;;;;;14.70;96896.00;;;;5055201;28;20053;-59
2023/04/12 12:28:49;;;;;;;2.72;1.10;;;;;14.80;96885.00;;;;5054782;28;20041;-59
2023/04/12 12:31:18;;;;;;;2.03;0.93;;;;;14.80;96894.00;;;;5055031;28;20547;-58